sensor_id;sensor_type;location;lat;lon;timestamp;P1;durP1;ratioP1;P2;durP2;ratioP2
20421;SDS011;10370;53.102;18.034;2022-07-23T00:00:23;27.58;;;14.77;;
20421;SDS011;10370;53.102;18.034;2022-07-23T00:05:45;23.05;;;15.00;;
20421;SDS011;10370;53.102;18.034;2022-07-23T00:11:06;26.25;;;14.95;;
20421;SDS011;10370;53.102;18.034;2022-07-23T00:16:27;24.80;;;14.68;;
20421;SDS011;10370;53.102;18.034;2022-07-23T00:21:49;22.77;;;14.15;;
20421;SDS011;10370;53.102;18.034;2022-07-23T00:27:10;20.98;;;13.82;;
20421;SDS011;10370;53.102;18.034;2022-07-23T00:32:31;20.63;;;13.77;;
20421;SDS011;10370;53.102;18.034;2022-07-23T00:38:12;18.48;;;13.25;;
20421;SDS011;10370;53.102;18.034;2022-07-23T00:43:33;17.50;;;13.40;;
20421;SDS011;10370;53.102;18.034;2022-07-23T00:48:54;19.40;;;13.57;;
20421;SDS011;10370;53.102;18.034;2022-07-23T00:54:16;25.20;;;15.23;;
20421;SDS011;10370;53.102;18.034;2022-07-23T00:59:41;23.48;;;15.07;;
20421;SDS011;10370;53.102;18.034;2022-07-23T01:05:02;24.42;;;17.67;;
20421;SDS011;10370;53.102;18.034;2022-07-23T01:10:24;20.55;;;15.80;;
20421;SDS011;10370;53.102;18.034;2022-07-23T01:15:51;27.45;;;18.25;;
20421;SDS011;10370;53.102;18.034;2022-07-23T01:21:12;23.52;;;16.30;;
20421;SDS011;10370;53.102;18.034;2022-07-23T01:26:33;24.13;;;15.55;;
20421;SDS011;10370;53.102;18.034;2022-07-23T01:31:55;22.02;;;14.52;;
20421;SDS011;10370;53.102;18.034;2022-07-23T01:37:16;26.20;;;16.90;;
20421;SDS011;10370;53.102;18.034;2022-07-23T01:42:37;22.27;;;15.88;;
20421;SDS011;10370;53.102;18.034;2022-07-23T01:47:58;24.27;;;17.00;;
20421;SDS011;10370;53.102;18.034;2022-07-23T01:53:19;20.58;;;14.95;;
20421;SDS011;10370;53.102;18.034;2022-07-23T01:58:40;23.25;;;15.52;;
20421;SDS011;10370;53.102;18.034;2022-07-23T02:04:01;26.58;;;15.55;;
20421;SDS011;10370;53.102;18.034;2022-07-23T02:09:22;43.38;;;19.35;;
20421;SDS011;10370;53.102;18.034;2022-07-23T02:14:43;35.88;;;18.50;;
20421;SDS011;10370;53.102;18.034;2022-07-23T02:20:05;33.40;;;16.90;;
20421;SDS011;10370;53.102;18.034;2022-07-23T02:25:27;24.20;;;16.60;;
20421;SDS011;10370;53.102;18.034;2022-07-23T02:30:48;44.85;;;18.85;;
20421;SDS011;10370;53.102;18.034;2022-07-23T02:36:09;93.53;;;17.40;;
20421;SDS011;10370;53.102;18.034;2022-07-23T02:41:30;19.55;;;14.60;;
20421;SDS011;10370;53.102;18.034;2022-07-23T02:46:51;21.02;;;14.68;;
20421;SDS011;10370;53.102;18.034;2022-07-23T02:57:33;15.23;;;11.20;;
20421;SDS011;10370;53.102;18.034;2022-07-23T03:02:53;15.30;;;12.55;;
20421;SDS011;10370;53.102;18.034;2022-07-23T03:08:15;22.98;;;14.32;;
20421;SDS011;10370;53.102;18.034;2022-07-23T03:13:39;37.83;;;17.88;;
20421;SDS011;10370;53.102;18.034;2022-07-23T03:19:01;26.98;;;10.63;;
20421;SDS011;10370;53.102;18.034;2022-07-23T03:24:25;15.38;;;12.00;;
20421;SDS011;10370;53.102;18.034;2022-07-23T03:30:05;14.85;;;11.45;;
20421;SDS011;10370;53.102;18.034;2022-07-23T03:35:26;20.75;;;13.82;;
20421;SDS011;10370;53.102;18.034;2022-07-23T03:40:47;44.70;;;14.30;;
20421;SDS011;10370;53.102;18.034;2022-07-23T03:46:08;22.90;;;15.68;;
20421;SDS011;10370;53.102;18.034;2022-07-23T03:51:29;23.67;;;16.38;;
20421;SDS011;10370;53.102;18.034;2022-07-23T03:56:51;27.27;;;16.48;;
20421;SDS011;10370;53.102;18.034;2022-07-23T04:02:12;33.97;;;20.45;;
20421;SDS011;10370;53.102;18.034;2022-07-23T04:07:33;22.70;;;15.70;;
20421;SDS011;10370;53.102;18.034;2022-07-23T04:12:54;21.38;;;14.82;;
20421;SDS011;10370;53.102;18.034;2022-07-23T04:18:15;23.08;;;16.35;;
20421;SDS011;10370;53.102;18.034;2022-07-23T04:23:37;29.40;;;20.50;;
20421;SDS011;10370;53.102;18.034;2022-07-23T04:28:58;26.35;;;16.17;;
20421;SDS011;10370;53.102;18.034;2022-07-23T04:34:19;39.55;;;22.55;;
20421;SDS011;10370;53.102;18.034;2022-07-23T04:39:40;42.30;;;25.83;;
20421;SDS011;10370;53.102;18.034;2022-07-23T04:45:01;25.30;;;17.65;;
20421;SDS011;10370;53.102;18.034;2022-07-23T04:50:23;17.48;;;13.60;;
20421;SDS011;10370;53.102;18.034;2022-07-23T04:55:44;24.52;;;17.48;;
20421;SDS011;10370;53.102;18.034;2022-07-23T05:01:05;34.50;;;20.77;;
20421;SDS011;10370;53.102;18.034;2022-07-23T05:06:26;18.20;;;14.15;;
20421;SDS011;10370;53.102;18.034;2022-07-23T05:11:47;23.88;;;18.30;;
20421;SDS011;10370;53.102;18.034;2022-07-23T05:17:08;18.23;;;15.95;;
20421;SDS011;10370;53.102;18.034;2022-07-23T05:22:29;21.73;;;17.35;;
20421;SDS011;10370;53.102;18.034;2022-07-23T05:27:50;23.25;;;18.52;;
20421;SDS011;10370;53.102;18.034;2022-07-23T05:33:11;22.42;;;18.73;;
20421;SDS011;10370;53.102;18.034;2022-07-23T05:38:32;28.10;;;20.53;;
20421;SDS011;10370;53.102;18.034;2022-07-23T05:43:53;29.48;;;19.40;;
20421;SDS011;10370;53.102;18.034;2022-07-23T05:49:14;19.52;;;17.33;;
20421;SDS011;10370;53.102;18.034;2022-07-23T05:54:35;21.35;;;16.45;;
20421;SDS011;10370;53.102;18.034;2022-07-23T05:59:56;17.65;;;15.52;;
20421;SDS011;10370;53.102;18.034;2022-07-23T06:05:17;16.05;;;14.40;;
20421;SDS011;10370;53.102;18.034;2022-07-23T06:10:39;18.08;;;14.45;;
20421;SDS011;10370;53.102;18.034;2022-07-23T06:16:01;22.00;;;16.08;;
20421;SDS011;10370;53.102;18.034;2022-07-23T06:21:22;19.70;;;16.23;;
20421;SDS011;10370;53.102;18.034;2022-07-23T06:27:03;24.48;;;18.60;;
20421;SDS011;10370;53.102;18.034;2022-07-23T06:32:24;22.20;;;18.10;;
20421;SDS011;10370;53.102;18.034;2022-07-23T07:34:44;15.70;;;12.98;;
20421;SDS011;10370;53.102;18.034;2022-07-23T07:45:50;12.80;;;10.45;;
20421;SDS011;10370;53.102;18.034;2022-07-23T07:51:12;15.02;;;11.20;;
20421;SDS011;10370;53.102;18.034;2022-07-23T07:56:33;14.98;;;11.23;;
20421;SDS011;10370;53.102;18.034;2022-07-23T08:01:54;13.85;;;10.50;;
20421;SDS011;10370;53.102;18.034;2022-07-23T08:07:15;13.43;;;10.43;;
20421;SDS011;10370;53.102;18.034;2022-07-23T08:12:37;13.43;;;9.45;;
20421;SDS011;10370;53.102;18.034;2022-07-23T08:18:09;12.50;;;8.73;;
20421;SDS011;10370;53.102;18.034;2022-07-23T08:23:31;14.40;;;8.75;;
20421;SDS011;10370;53.102;18.034;2022-07-23T08:28:52;10.57;;;8.73;;
20421;SDS011;10370;53.102;18.034;2022-07-23T08:34:13;12.32;;;8.85;;
20421;SDS011;10370;53.102;18.034;2022-07-23T08:39:34;16.45;;;9.35;;
20421;SDS011;10370;53.102;18.034;2022-07-23T08:44:55;13.02;;;9.15;;
20421;SDS011;10370;53.102;18.034;2022-07-23T08:50:17;11.23;;;9.35;;
20421;SDS011;10370;53.102;18.034;2022-07-23T08:55:38;10.32;;;8.85;;
20421;SDS011;10370;53.102;18.034;2022-07-23T09:01:00;9.40;;;7.70;;
20421;SDS011;10370;53.102;18.034;2022-07-23T09:06:22;8.93;;;8.02;;
20421;SDS011;10370;53.102;18.034;2022-07-23T09:11:45;10.48;;;8.13;;
20421;SDS011;10370;53.102;18.034;2022-07-23T09:17:14;11.75;;;8.20;;
20421;SDS011;10370;53.102;18.034;2022-07-23T09:22:36;9.50;;;7.63;;
20421;SDS011;10370;53.102;18.034;2022-07-23T09:27:58;12.35;;;8.40;;
20421;SDS011;10370;53.102;18.034;2022-07-23T09:33:23;13.43;;;9.13;;
20421;SDS011;10370;53.102;18.034;2022-07-23T09:38:50;17.35;;;8.98;;
20421;SDS011;10370;53.102;18.034;2022-07-23T09:44:15;13.10;;;9.80;;
20421;SDS011;10370;53.102;18.034;2022-07-23T09:49:41;12.40;;;9.93;;
20421;SDS011;10370;53.102;18.034;2022-07-23T09:55:18;13.93;;;11.52;;
20421;SDS011;10370;53.102;18.034;2022-07-23T10:00:39;17.85;;;11.60;;
20421;SDS011;10370;53.102;18.034;2022-07-23T10:06:01;14.48;;;11.18;;
20421;SDS011;10370;53.102;18.034;2022-07-23T10:11:22;16.65;;;11.15;;
20421;SDS011;10370;53.102;18.034;2022-07-23T10:16:46;19.73;;;13.27;;
20421;SDS011;10370;53.102;18.034;2022-07-23T10:29:06;18.92;;;13.93;;
20421;SDS011;10370;53.102;18.034;2022-07-23T10:35:07;18.45;;;14.27;;
20421;SDS011;10370;53.102;18.034;2022-07-23T10:41:00;19.95;;;15.65;;
20421;SDS011;10370;53.102;18.034;2022-07-23T10:46:24;25.65;;;15.73;;
20421;SDS011;10370;53.102;18.034;2022-07-23T10:57:47;21.40;;;17.40;;
20421;SDS011;10370;53.102;18.034;2022-07-23T11:03:32;28.10;;;19.38;;
20421;SDS011;10370;53.102;18.034;2022-07-23T11:20:35;18.08;;;15.13;;
20421;SDS011;10370;53.102;18.034;2022-07-23T11:25:56;19.30;;;14.60;;
20421;SDS011;10370;53.102;18.034;2022-07-23T11:31:17;14.50;;;11.40;;
20421;SDS011;10370;53.102;18.034;2022-07-23T11:36:49;14.23;;;11.13;;
20421;SDS011;10370;53.102;18.034;2022-07-23T11:42:11;13.27;;;10.75;;
20421;SDS011;10370;53.102;18.034;2022-07-23T11:47:39;15.32;;;10.82;;
20421;SDS011;10370;53.102;18.034;2022-07-23T11:53:01;12.10;;;10.63;;
20421;SDS011;10370;53.102;18.034;2022-07-23T11:58:22;13.30;;;11.23;;
20421;SDS011;10370;53.102;18.034;2022-07-23T12:03:50;13.85;;;11.88;;
20421;SDS011;10370;53.102;18.034;2022-07-23T12:09:11;13.68;;;11.68;;
20421;SDS011;10370;53.102;18.034;2022-07-23T12:14:32;14.80;;;12.75;;
20421;SDS011;10370;53.102;18.034;2022-07-23T12:19:54;13.82;;;12.40;;
20421;SDS011;10370;53.102;18.034;2022-07-23T12:25:20;14.70;;;11.98;;
20421;SDS011;10370;53.102;18.034;2022-07-23T12:30:44;13.90;;;11.23;;
20421;SDS011;10370;53.102;18.034;2022-07-23T12:36:07;14.00;;;11.57;;
20421;SDS011;10370;53.102;18.034;2022-07-23T12:41:48;20.67;;;12.98;;
20421;SDS011;10370;53.102;18.034;2022-07-23T12:47:13;15.50;;;12.63;;
20421;SDS011;10370;53.102;18.034;2022-07-23T12:52:34;15.05;;;12.57;;
20421;SDS011;10370;53.102;18.034;2022-07-23T12:58:03;13.70;;;11.95;;
20421;SDS011;10370;53.102;18.034;2022-07-23T13:03:40;14.15;;;11.25;;
20421;SDS011;10370;53.102;18.034;2022-07-23T13:09:02;13.13;;;10.50;;
20421;SDS011;10370;53.102;18.034;2022-07-23T13:14:24;15.80;;;11.15;;
20421;SDS011;10370;53.102;18.034;2022-07-23T13:19:46;12.07;;;10.43;;
20421;SDS011;10370;53.102;18.034;2022-07-23T13:25:07;13.00;;;10.65;;
20421;SDS011;10370;53.102;18.034;2022-07-23T13:30:29;15.50;;;11.10;;
20421;SDS011;10370;53.102;18.034;2022-07-23T13:35:51;14.80;;;11.35;;
20421;SDS011;10370;53.102;18.034;2022-07-23T13:41:12;12.80;;;10.23;;
20421;SDS011;10370;53.102;18.034;2022-07-23T13:46:34;14.07;;;9.95;;
20421;SDS011;10370;53.102;18.034;2022-07-23T13:51:56;12.35;;;10.00;;
20421;SDS011;10370;53.102;18.034;2022-07-23T13:57:18;8.48;;;7.57;;
20421;SDS011;10370;53.102;18.034;2022-07-23T14:02:40;10.07;;;8.70;;
20421;SDS011;10370;53.102;18.034;2022-07-23T14:08:01;13.73;;;8.32;;
20421;SDS011;10370;53.102;18.034;2022-07-23T14:13:23;12.45;;;8.73;;
20421;SDS011;10370;53.102;18.034;2022-07-23T14:18:44;10.48;;;8.43;;
20421;SDS011;10370;53.102;18.034;2022-07-23T14:24:05;9.35;;;7.78;;
20421;SDS011;10370;53.102;18.034;2022-07-23T14:29:26;10.65;;;7.43;;
20421;SDS011;10370;53.102;18.034;2022-07-23T14:34:47;10.40;;;7.45;;
20421;SDS011;10370;53.102;18.034;2022-07-23T14:40:09;9.70;;;7.25;;
20421;SDS011;10370;53.102;18.034;2022-07-23T14:45:29;10.20;;;6.80;;
20421;SDS011;10370;53.102;18.034;2022-07-23T14:50:51;10.80;;;6.80;;
20421;SDS011;10370;53.102;18.034;2022-07-23T14:56:12;9.05;;;7.72;;
20421;SDS011;10370;53.102;18.034;2022-07-23T15:01:34;8.43;;;7.30;;
20421;SDS011;10370;53.102;18.034;2022-07-23T15:06:56;10.68;;;8.10;;
20421;SDS011;10370;53.102;18.034;2022-07-23T15:12:19;11.43;;;8.27;;
20421;SDS011;10370;53.102;18.034;2022-07-23T15:17:40;10.25;;;8.20;;
20421;SDS011;10370;53.102;18.034;2022-07-23T15:23:01;9.73;;;8.57;;
20421;SDS011;10370;53.102;18.034;2022-07-23T15:28:22;11.13;;;8.75;;
20421;SDS011;10370;53.102;18.034;2022-07-23T15:33:43;11.77;;;9.15;;
20421;SDS011;10370;53.102;18.034;2022-07-23T15:39:05;10.80;;;9.18;;
20421;SDS011;10370;53.102;18.034;2022-07-23T15:44:27;11.52;;;9.38;;
20421;SDS011;10370;53.102;18.034;2022-07-23T15:49:48;12.30;;;9.77;;
20421;SDS011;10370;53.102;18.034;2022-07-23T15:55:09;11.55;;;9.75;;
20421;SDS011;10370;53.102;18.034;2022-07-23T16:00:32;11.65;;;10.43;;
20421;SDS011;10370;53.102;18.034;2022-07-23T16:05:53;14.75;;;10.43;;
20421;SDS011;10370;53.102;18.034;2022-07-23T16:11:14;12.98;;;9.73;;
20421;SDS011;10370;53.102;18.034;2022-07-23T16:16:35;14.23;;;10.07;;
20421;SDS011;10370;53.102;18.034;2022-07-23T16:21:56;11.60;;;9.23;;
20421;SDS011;10370;53.102;18.034;2022-07-23T16:27:17;13.20;;;10.15;;
20421;SDS011;10370;53.102;18.034;2022-07-23T16:32:39;11.38;;;9.90;;
20421;SDS011;10370;53.102;18.034;2022-07-23T16:38:01;13.65;;;10.52;;
20421;SDS011;10370;53.102;18.034;2022-07-23T16:43:23;12.85;;;10.40;;
20421;SDS011;10370;53.102;18.034;2022-07-23T16:48:47;17.73;;;10.77;;
20421;SDS011;10370;53.102;18.034;2022-07-23T16:54:07;16.38;;;11.73;;
20421;SDS011;10370;53.102;18.034;2022-07-23T16:59:29;12.95;;;11.55;;
20421;SDS011;10370;53.102;18.034;2022-07-23T17:04:49;15.70;;;12.05;;
20421;SDS011;10370;53.102;18.034;2022-07-23T17:10:11;14.38;;;11.45;;
20421;SDS011;10370;53.102;18.034;2022-07-23T17:15:32;13.55;;;11.93;;
20421;SDS011;10370;53.102;18.034;2022-07-23T17:20:53;15.55;;;12.50;;
20421;SDS011;10370;53.102;18.034;2022-07-23T17:26:14;16.25;;;12.57;;
20421;SDS011;10370;53.102;18.034;2022-07-23T17:31:35;16.48;;;12.82;;
20421;SDS011;10370;53.102;18.034;2022-07-23T17:36:56;18.17;;;14.02;;
20421;SDS011;10370;53.102;18.034;2022-07-23T17:42:17;16.75;;;13.80;;
20421;SDS011;10370;53.102;18.034;2022-07-23T17:47:38;24.25;;;14.35;;
20421;SDS011;10370;53.102;18.034;2022-07-23T17:52:59;21.98;;;13.82;;
20421;SDS011;10370;53.102;18.034;2022-07-23T17:58:20;20.30;;;14.43;;
20421;SDS011;10370;53.102;18.034;2022-07-23T18:03:41;17.60;;;14.15;;
20421;SDS011;10370;53.102;18.034;2022-07-23T18:09:04;18.20;;;12.82;;
20421;SDS011;10370;53.102;18.034;2022-07-23T18:14:26;14.95;;;11.63;;
20421;SDS011;10370;53.102;18.034;2022-07-23T18:19:47;39.85;;;27.08;;
20421;SDS011;10370;53.102;18.034;2022-07-23T18:25:08;15.18;;;12.45;;
20421;SDS011;10370;53.102;18.034;2022-07-23T18:30:30;17.73;;;13.32;;
20421;SDS011;10370;53.102;18.034;2022-07-23T18:35:52;15.23;;;11.32;;
20421;SDS011;10370;53.102;18.034;2022-07-23T18:41:13;16.88;;;12.13;;
20421;SDS011;10370;53.102;18.034;2022-07-23T18:46:34;14.43;;;11.90;;
20421;SDS011;10370;53.102;18.034;2022-07-23T18:51:55;17.77;;;11.32;;
20421;SDS011;10370;53.102;18.034;2022-07-23T18:57:16;19.23;;;13.95;;
20421;SDS011;10370;53.102;18.034;2022-07-23T19:02:38;22.40;;;15.88;;
20421;SDS011;10370;53.102;18.034;2022-07-23T19:07:59;13.48;;;10.63;;
20421;SDS011;10370;53.102;18.034;2022-07-23T19:13:20;18.63;;;12.23;;
20421;SDS011;10370;53.102;18.034;2022-07-23T19:18:41;21.17;;;15.27;;
20421;SDS011;10370;53.102;18.034;2022-07-23T19:24:02;19.67;;;11.85;;
20421;SDS011;10370;53.102;18.034;2022-07-23T19:29:24;17.00;;;12.40;;
20421;SDS011;10370;53.102;18.034;2022-07-23T19:34:57;23.55;;;13.07;;
20421;SDS011;10370;53.102;18.034;2022-07-23T19:40:18;12.90;;;9.40;;
20421;SDS011;10370;53.102;18.034;2022-07-23T19:45:39;14.55;;;8.35;;
20421;SDS011;10370;53.102;18.034;2022-07-23T19:51:01;10.10;;;6.78;;
20421;SDS011;10370;53.102;18.034;2022-07-23T19:56:22;7.90;;;5.47;;
20421;SDS011;10370;53.102;18.034;2022-07-23T20:01:49;7.10;;;5.20;;
20421;SDS011;10370;53.102;18.034;2022-07-23T20:07:11;7.68;;;5.15;;
20421;SDS011;10370;53.102;18.034;2022-07-23T20:12:32;10.38;;;4.88;;
20421;SDS011;10370;53.102;18.034;2022-07-23T20:17:54;15.05;;;5.13;;
20421;SDS011;10370;53.102;18.034;2022-07-23T20:23:15;6.13;;;4.63;;
20421;SDS011;10370;53.102;18.034;2022-07-23T20:28:36;8.07;;;4.90;;
20421;SDS011;10370;53.102;18.034;2022-07-23T20:33:57;7.65;;;5.43;;
20421;SDS011;10370;53.102;18.034;2022-07-23T20:39:18;7.28;;;5.45;;
20421;SDS011;10370;53.102;18.034;2022-07-23T20:44:39;7.10;;;4.85;;
20421;SDS011;10370;53.102;18.034;2022-07-23T20:50:01;8.48;;;5.10;;
20421;SDS011;10370;53.102;18.034;2022-07-23T20:55:22;9.20;;;4.78;;
20421;SDS011;10370;53.102;18.034;2022-07-23T21:00:43;10.75;;;5.05;;
20421;SDS011;10370;53.102;18.034;2022-07-23T21:06:04;5.97;;;4.95;;
20421;SDS011;10370;53.102;18.034;2022-07-23T21:11:25;8.43;;;5.00;;
20421;SDS011;10370;53.102;18.034;2022-07-23T21:16:46;7.03;;;4.78;;
20421;SDS011;10370;53.102;18.034;2022-07-23T21:22:07;7.38;;;4.90;;
20421;SDS011;10370;53.102;18.034;2022-07-23T21:27:28;8.77;;;4.80;;
20421;SDS011;10370;53.102;18.034;2022-07-23T21:32:49;8.00;;;4.70;;
20421;SDS011;10370;53.102;18.034;2022-07-23T21:38:10;6.53;;;4.68;;
20421;SDS011;10370;53.102;18.034;2022-07-23T21:43:32;6.95;;;4.80;;
20421;SDS011;10370;53.102;18.034;2022-07-23T21:48:53;9.02;;;5.28;;
20421;SDS011;10370;53.102;18.034;2022-07-23T21:54:14;6.97;;;4.55;;
20421;SDS011;10370;53.102;18.034;2022-07-23T21:59:36;8.20;;;5.10;;
20421;SDS011;10370;53.102;18.034;2022-07-23T22:04:59;8.25;;;5.28;;
20421;SDS011;10370;53.102;18.034;2022-07-23T22:10:20;7.47;;;5.63;;
20421;SDS011;10370;53.102;18.034;2022-07-23T22:15:41;7.47;;;6.10;;
20421;SDS011;10370;53.102;18.034;2022-07-23T22:21:02;8.15;;;6.68;;
20421;SDS011;10370;53.102;18.034;2022-07-23T22:26:44;8.98;;;5.68;;
20421;SDS011;10370;53.102;18.034;2022-07-23T22:32:06;10.40;;;6.78;;
20421;SDS011;10370;53.102;18.034;2022-07-23T22:37:27;10.38;;;6.13;;
20421;SDS011;10370;53.102;18.034;2022-07-23T22:42:48;10.07;;;5.70;;
20421;SDS011;10370;53.102;18.034;2022-07-23T22:48:09;12.13;;;6.45;;
20421;SDS011;10370;53.102;18.034;2022-07-23T22:53:31;13.05;;;8.40;;
20421;SDS011;10370;53.102;18.034;2022-07-23T22:58:52;11.15;;;7.53;;
20421;SDS011;10370;53.102;18.034;2022-07-23T23:04:31;13.13;;;6.47;;
20421;SDS011;10370;53.102;18.034;2022-07-23T23:09:52;8.32;;;6.05;;
20421;SDS011;10370;53.102;18.034;2022-07-23T23:15:13;9.82;;;6.55;;
20421;SDS011;10370;53.102;18.034;2022-07-23T23:20:34;16.77;;;10.88;;
20421;SDS011;10370;53.102;18.034;2022-07-23T23:25:55;10.95;;;7.45;;
20421;SDS011;10370;53.102;18.034;2022-07-23T23:31:18;11.52;;;7.10;;
20421;SDS011;10370;53.102;18.034;2022-07-23T23:36:40;9.20;;;6.63;;
20421;SDS011;10370;53.102;18.034;2022-07-23T23:42:02;8.52;;;6.30;;
20421;SDS011;10370;53.102;18.034;2022-07-23T23:47:23;9.45;;;6.65;;
20421;SDS011;10370;53.102;18.034;2022-07-23T23:52:44;11.13;;;6.15;;
20421;SDS011;10370;53.102;18.034;2022-07-23T23:58:05;8.23;;;5.90;;
